Park Rapids, Minnesota
Current Conditions -  °F | °C
As of 12:14 PM on Wednesday 26 Nov 2014 (Local Time) from KPKD Reporting Station
Scattered Clouds Scattered Clouds  
Wind Chill: -17°   Ceiling: Unl
Heat Index: -10°   Visibility: 10mi
Dew Point: -16°   Wind: 9mph
Humidity: 64%   Direction: 340°NNW
Pressure: 30.24"   Gusts: NA
Location:  46.92°N, 95.06°W
Report Text: KPKD 261814Z AUTO 34008KT 10SM FEW013 SCT021 M10/M16 A3024 RMK AO2 T11001156
Loading
Personal Weather Stations






























Interactive Weather Map New forecast layout! Learn more

10-Day Weather Forecast

Advertisements
Track Severe Weather on mobile